Time;durP1;ratioP1;P1;durP2;ratioP2;P2;SDS_P1;SDS_P2;PMS_P1;PMS_P2;Temp;Humidity;BMP_temperature;BMP_pressure;BME280_temperature;BME280_humidity;BME280_pressure;Samples;Min_cycle;Max_cycle;Signal;HPM_P1;HPM_P2
2022/03/19 00:00:24;;;;;;;25.05;9.85;;;;;;;;;;5043073;28;20119;-81
2022/03/19 00:02:52;;;;;;;26.88;9.70;;;;;;;;;;5041049;28;20126;-80
2022/03/19 00:05:21;;;;;;;24.35;8.63;;;;;;;;;;5058183;28;20077;-82
2022/03/19 00:07:49;;;;;;;27.83;9.10;;;;;;;;;;5039327;28;20040;-80
2022/03/19 00:10:17;;;;;;;33.65;10.18;;;;;;;;;;5055308;28;20370;-80
2022/03/19 00:12:44;;;;;;;29.88;10.13;;;;;;;;;;5056630;28;20102;-81
2022/03/19 00:15:12;;;;;;;24.50;9.25;;;;;;;;;;5059971;28;20049;-82
2022/03/19 00:17:40;;;;;;;29.05;9.05;;;;;;;;;;5057317;28;20044;-81
2022/03/19 00:20:09;;;;;;;25.48;9.00;;;;;;;;;;5060671;28;20127;-78
2022/03/19 00:22:37;;;;;;;22.80;9.00;;;;;;;;;;5060087;28;20041;-79
2022/03/19 00:25:05;;;;;;;22.83;9.15;;;;;;;;;;5060735;28;20041;-79
2022/03/19 00:27:32;;;;;;;22.40;8.20;;;;;;;;;;5061950;28;20075;-82
2022/03/19 00:30:00;;;;;;;17.98;7.95;;;;;;;;;;5062140;28;20080;-81
2022/03/19 00:32:28;;;;;;;20.45;7.95;;;;;;;;;;5064168;28;20127;-88
2022/03/19 00:34:57;;;;;;;21.23;8.40;;;;;;;;;;5074628;28;20124;-88
2022/03/19 00:37:24;;;;;;;23.77;8.80;;;;;;;;;;5054038;28;20060;-88
2022/03/19 00:39:52;;;;;;;18.63;7.70;;;;;;;;;;5073955;28;20060;-88
2022/03/19 00:42:20;;;;;;;20.45;6.82;;;;;;;;;;5093847;28;20033;-88
2022/03/19 00:44:48;;;;;;;15.52;6.50;;;;;;;;;;5072649;28;20062;-90
2022/03/19 00:47:16;;;;;;;18.67;6.78;;;;;;;;;;5078636;28;20131;-88
2022/03/19 00:49:44;;;;;;;14.23;6.40;;;;;;;;;;5056171;28;20040;-88
2022/03/19 00:52:12;;;;;;;17.90;6.40;;;;;;;;;;5045210;28;20468;-86
2022/03/19 00:54:40;;;;;;;19.10;6.90;;;;;;;;;;5069618;28;20056;-87
2022/03/19 00:57:08;;;;;;;12.32;5.90;;;;;;;;;;5072504;28;20041;-87
2022/03/19 00:59:36;;;;;;;16.38;6.15;;;;;;;;;;5056257;28;20052;-87
2022/03/19 01:02:04;;;;;;;14.20;6.00;;;;;;;;;;5066264;28;20033;-87
2022/03/19 01:04:32;;;;;;;15.38;5.38;;;;;;;;;;5067292;28;20036;-87
2022/03/19 01:07:00;;;;;;;17.55;5.50;;;;;;;;;;5062940;28;20041;-86
2022/03/19 01:09:28;;;;;;;11.80;5.47;;;;;;;;;;5064485;28;20855;-85
2022/03/19 01:11:56;;;;;;;9.95;4.60;;;;;;;;;;5066138;28;20036;-85
2022/03/19 01:14:28;;;;;;;18.08;4.95;;;;;;;;;;5060663;28;20045;-85
2022/03/19 01:16:56;;;;;;;19.85;5.18;;;;;;;;;;5061002;28;20497;-85
2022/03/19 01:22:10;;;;;;;13.20;4.07;;;;;;;;;;5055873;28;20037;-85
2022/03/19 01:24:38;;;;;;;15.95;4.43;;;;;;;;;;5042886;28;20040;-85
2022/03/19 01:27:07;;;;;;;8.80;3.85;;;;;;;;;;5051765;28;20504;-78
2022/03/19 01:29:36;;;;;;;15.13;4.10;;;;;;;;;;5053245;28;20049;-79
2022/03/19 01:32:04;;;;;;;21.23;3.92;;;;;;;;;;5041996;28;20507;-86
2022/03/19 01:34:32;;;;;;;18.02;4.15;;;;;;;;;;5048799;28;20160;-84
2022/03/19 01:37:00;;;;;;;19.17;3.63;;;;;;;;;;5034060;28;20040;-84
2022/03/19 01:39:28;;;;;;;13.18;4.00;;;;;;;;;;5048120;28;20909;-84
2022/03/19 01:41:56;;;;;;;11.63;3.92;;;;;;;;;;5069177;28;20044;-85
2022/03/19 01:44:28;;;;;;;15.02;4.72;;;;;;;;;;5062021;28;20123;-85
2022/03/19 01:46:59;;;;;;;16.60;4.80;;;;;;;;;;5060164;28;20037;-86
2022/03/19 01:49:27;;;;;;;14.05;4.65;;;;;;;;;;5066798;28;20048;-86
2022/03/19 01:51:55;;;;;;;12.43;4.80;;;;;;;;;;5043117;28;20438;-86
2022/03/19 01:54:29;;;;;;;11.38;4.10;;;;;;;;;;5044264;28;20048;-85
2022/03/19 01:56:57;;;;;;;17.10;3.67;;;;;;;;;;5062122;28;20050;-85
2022/03/19 01:59:28;;;;;;;11.40;3.70;;;;;;;;;;5047463;28;20079;-85
2022/03/19 02:01:56;;;;;;;14.60;4.00;;;;;;;;;;5045005;28;20053;-84
2022/03/19 02:04:24;;;;;;;15.65;4.25;;;;;;;;;;5059369;28;20048;-84
2022/03/19 02:06:54;;;;;;;15.25;4.32;;;;;;;;;;5046069;28;20164;-83
2022/03/19 02:09:22;;;;;;;11.50;4.13;;;;;;;;;;5061791;28;20040;-84
2022/03/19 02:11:51;;;;;;;17.27;4.00;;;;;;;;;;5037223;28;20040;-84
2022/03/19 02:14:19;;;;;;;13.63;4.05;;;;;;;;;;5061413;28;20080;-83
2022/03/19 02:16:50;;;;;;;7.10;3.58;;;;;;;;;;5062787;28;20055;-84
2022/03/19 02:19:21;;;;;;;13.73;3.58;;;;;;;;;;5057656;28;20496;-84
2022/03/19 02:21:50;;;;;;;8.65;3.25;;;;;;;;;;5058693;28;20037;-84
2022/03/19 02:27:04;;;;;;;10.60;3.55;;;;;;;;;;5059613;28;20046;-84
2022/03/19 02:29:32;;;;;;;12.75;3.30;;;;;;;;;;5051441;28;20048;-84
2022/03/19 02:32:03;;;;;;;12.15;3.53;;;;;;;;;;5050054;28;20041;-83
2022/03/19 02:34:33;;;;;;;9.95;3.78;;;;;;;;;;5058244;28;20107;-84
2022/03/19 02:37:01;;;;;;;12.60;4.18;;;;;;;;;;5048812;28;20040;-84
2022/03/19 02:39:34;;;;;;;11.23;3.88;;;;;;;;;;5060873;28;20043;-84
2022/03/19 02:42:07;;;;;;;9.25;3.38;;;;;;;;;;5039503;28;20132;-84
2022/03/19 02:44:35;;;;;;;7.57;3.15;;;;;;;;;;5043476;28;20049;-85
2022/03/19 02:47:04;;;;;;;13.48;2.78;;;;;;;;;;5066333;28;20044;-86
2022/03/19 02:49:31;;;;;;;13.65;3.22;;;;;;;;;;5041216;28;20036;-85
2022/03/19 02:51:59;;;;;;;11.85;3.10;;;;;;;;;;5045627;28;20055;-85
2022/03/19 02:54:29;;;;;;;10.18;3.65;;;;;;;;;;5062234;28;20529;-85
2022/03/19 02:56:59;;;;;;;9.75;3.33;;;;;;;;;;5061490;28;20173;-85
2022/03/19 02:59:28;;;;;;;9.80;2.90;;;;;;;;;;5066034;28;20118;-84
2022/03/19 03:02:03;;;;;;;10.43;3.13;;;;;;;;;;5058776;28;20519;-83
2022/03/19 03:04:32;;;;;;;10.57;3.03;;;;;;;;;;5060089;28;20217;-84
2022/03/19 03:07:03;;;;;;;10.77;3.00;;;;;;;;;;5044699;28;20045;-84
2022/03/19 03:09:31;;;;;;;9.32;2.63;;;;;;;;;;5031469;28;20045;-84
2022/03/19 03:12:01;;;;;;;13.07;3.50;;;;;;;;;;5059941;28;20045;-84
2022/03/19 03:14:29;;;;;;;8.13;2.75;;;;;;;;;;5048728;28;20136;-84
2022/03/19 03:17:00;;;;;;;12.25;3.13;;;;;;;;;;5059314;28;20040;-78
2022/03/19 03:19:28;;;;;;;9.93;2.90;;;;;;;;;;5047701;28;20120;-78
2022/03/19 03:21:56;;;;;;;14.02;3.50;;;;;;;;;;5059505;28;20075;-84
2022/03/19 03:24:24;;;;;;;13.60;3.38;;;;;;;;;;5043647;28;20032;-85
2022/03/19 03:26:51;;;;;;;6.93;3.08;;;;;;;;;;5060100;28;20069;-85
2022/03/19 03:29:20;;;;;;;17.40;3.30;;;;;;;;;;5062402;28;20136;-85
2022/03/19 03:31:48;;;;;;;13.50;3.17;;;;;;;;;;5061378;28;20468;-84
2022/03/19 03:34:19;;;;;;;13.10;3.45;;;;;;;;;;5047962;28;20056;-84
2022/03/19 03:36:47;;;;;;;9.90;2.78;;;;;;;;;;5056410;28;20077;-84
2022/03/19 03:39:16;;;;;;;8.55;2.63;;;;;;;;;;5059582;28;20037;-84
2022/03/19 03:41:43;;;;;;;7.68;2.60;;;;;;;;;;5056627;28;20045;-84
2022/03/19 03:44:11;;;;;;;12.18;2.60;;;;;;;;;;5049349;28;20039;-84
2022/03/19 03:46:39;;;;;;;9.85;2.58;;;;;;;;;;5064445;28;20085;-84
2022/03/19 03:49:08;;;;;;;10.50;2.47;;;;;;;;;;5091471;28;20044;-84
2022/03/19 03:51:37;;;;;;;11.38;2.30;;;;;;;;;;5079847;28;20078;-84
2022/03/19 03:54:07;;;;;;;10.20;2.63;;;;;;;;;;5074536;28;20036;-84
2022/03/19 03:56:35;;;;;;;7.20;2.08;;;;;;;;;;5066992;28;20033;-83
2022/03/19 03:59:02;;;;;;;7.10;2.53;;;;;;;;;;5050125;28;20122;-84
2022/03/19 04:01:29;;;;;;;7.88;2.90;;;;;;;;;;5071306;28;20047;-84
2022/03/19 04:03:58;;;;;;;7.82;2.50;;;;;;;;;;5056484;28;20042;-84
2022/03/19 04:06:25;;;;;;;8.07;2.25;;;;;;;;;;5067185;28;20040;-84
2022/03/19 04:08:54;;;;;;;10.60;2.58;;;;;;;;;;5066629;28;20452;-84
2022/03/19 04:11:26;;;;;;;12.60;2.45;;;;;;;;;;5065423;28;20067;-78
2022/03/19 04:13:59;;;;;;;6.38;2.45;;;;;;;;;;5047664;28;20068;-78
2022/03/19 04:16:27;;;;;;;5.88;2.72;;;;;;;;;;5045517;28;20041;-78
2022/03/19 04:18:56;;;;;;;10.25;2.88;;;;;;;;;;5049893;28;20500;-78
2022/03/19 04:21:24;;;;;;;5.10;2.35;;;;;;;;;;5044994;28;20164;-78
2022/03/19 04:23:52;;;;;;;7.75;2.42;;;;;;;;;;5067149;28;20113;-82
2022/03/19 04:26:20;;;;;;;4.78;2.33;;;;;;;;;;5036368;28;20048;-82
2022/03/19 04:28:47;;;;;;;11.73;3.00;;;;;;;;;;5049196;28;20414;-82
2022/03/19 04:31:15;;;;;;;11.60;3.38;;;;;;;;;;5066286;28;20037;-83
2022/03/19 04:33:43;;;;;;;7.00;2.67;;;;;;;;;;5053413;28;20052;-82
2022/03/19 04:36:30;;;;;;;8.10;2.65;;;;;;;;;;5062708;28;20398;-82
2022/03/19 04:38:59;;;;;;;10.85;2.60;;;;;;;;;;5037319;28;20447;-83
2022/03/19 04:41:28;;;;;;;9.45;2.97;;;;;;;;;;5067366;28;20033;-82
2022/03/19 04:43:56;;;;;;;9.65;2.67;;;;;;;;;;5065311;28;20064;-83
2022/03/19 04:46:24;;;;;;;9.88;2.70;;;;;;;;;;5062988;28;20049;-82
2022/03/19 04:48:53;;;;;;;8.93;2.95;;;;;;;;;;5064683;28;20044;-82
2022/03/19 04:51:30;;;;;;;7.43;2.65;;;;;;;;;;5032403;28;20033;-84
2022/03/19 04:53:58;;;;;;;6.82;2.70;;;;;;;;;;5056986;28;20394;-85
2022/03/19 04:56:30;;;;;;;11.20;2.47;;;;;;;;;;5060879;28;20128;-84
2022/03/19 04:59:01;;;;;;;12.18;3.42;;;;;;;;;;5032438;28;20420;-84
2022/03/19 05:01:32;;;;;;;8.20;2.47;;;;;;;;;;5054072;28;20395;-84
2022/03/19 05:04:00;;;;;;;5.97;2.20;;;;;;;;;;5062533;28;20052;-84
2022/03/19 05:06:28;;;;;;;7.53;3.08;;;;;;;;;;5048576;28;20044;-79
2022/03/19 05:11:42;;;;;;;9.88;2.88;;;;;;;;;;5058423;28;20040;-81
2022/03/19 05:14:11;;;;;;;7.07;2.83;;;;;;;;;;5064101;28;20103;-81
2022/03/19 05:16:40;;;;;;;11.57;2.55;;;;;;;;;;5042410;28;20132;-81
2022/03/19 05:19:08;;;;;;;10.00;2.60;;;;;;;;;;5032114;28;20459;-82
2022/03/19 05:21:36;;;;;;;11.50;3.50;;;;;;;;;;5048801;28;20135;-82
2022/03/19 05:24:04;;;;;;;10.77;2.63;;;;;;;;;;5062525;28;20037;-82
2022/03/19 05:26:36;;;;;;;7.95;2.80;;;;;;;;;;5059453;28;20028;-82
2022/03/19 05:29:03;;;;;;;8.15;2.58;;;;;;;;;;5049373;28;20047;-82
2022/03/19 05:31:34;;;;;;;8.77;2.47;;;;;;;;;;5048435;28;20762;-83
2022/03/19 05:36:48;;;;;;;7.57;2.80;;;;;;;;;;5059561;28;20047;-81
2022/03/19 05:39:16;;;;;;;8.25;2.55;;;;;;;;;;5047656;28;20047;-82
2022/03/19 05:41:44;;;;;;;8.18;2.72;;;;;;;;;;5062689;28;20821;-82
2022/03/19 05:44:12;;;;;;;8.25;2.70;;;;;;;;;;5064221;28;20041;-83
2022/03/19 05:46:40;;;;;;;6.88;2.83;;;;;;;;;;5060074;28;20051;-85
2022/03/19 05:49:08;;;;;;;10.10;2.75;;;;;;;;;;5035437;28;20040;-84
2022/03/19 05:51:35;;;;;;;6.82;2.40;;;;;;;;;;5047942;28;20032;-85
2022/03/19 05:54:04;;;;;;;6.03;1.90;;;;;;;;;;5060470;28;20044;-84
2022/03/19 05:56:32;;;;;;;5.72;2.30;;;;;;;;;;5061029;28;20048;-84
2022/03/19 05:59:00;;;;;;;10.43;2.90;;;;;;;;;;5047411;28;20674;-85
2022/03/19 06:01:28;;;;;;;15.15;2.75;;;;;;;;;;5046248;28;20119;-85
2022/03/19 06:03:57;;;;;;;17.35;2.97;;;;;;;;;;5061935;28;20157;-86
2022/03/19 06:06:26;;;;;;;11.77;2.90;;;;;;;;;;5058638;28;20064;-78
2022/03/19 06:08:54;;;;;;;9.68;2.65;;;;;;;;;;5042328;28;20124;-77
2022/03/19 06:11:26;;;;;;;8.40;2.63;;;;;;;;;;5049052;28;20113;-78
2022/03/19 06:13:54;;;;;;;10.35;2.58;;;;;;;;;;5056150;28;20131;-78
2022/03/19 06:16:22;;;;;;;9.65;2.05;;;;;;;;;;5057790;28;20029;-78
2022/03/19 06:18:52;;;;;;;8.55;2.22;;;;;;;;;;5040735;28;20713;-78
2022/03/19 06:21:23;;;;;;;10.38;2.60;;;;;;;;;;5056286;28;20044;-78
2022/03/19 06:23:50;;;;;;;10.38;2.28;;;;;;;;;;5060969;28;20064;-78
2022/03/19 06:26:20;;;;;;;14.90;2.50;;;;;;;;;;5046072;28;20044;-78
2022/03/19 06:28:48;;;;;;;5.82;2.00;;;;;;;;;;5058196;28;20128;-78
2022/03/19 06:31:16;;;;;;;10.82;2.25;;;;;;;;;;5028796;28;20516;-78
2022/03/19 06:33:44;;;;;;;4.57;2.00;;;;;;;;;;5057357;28;20091;-78
2022/03/19 06:39:00;;;;;;;16.75;2.97;;;;;;;;;;5059951;28;20122;-78
2022/03/19 06:41:28;;;;;;;12.27;2.50;;;;;;;;;;5058719;28;20143;-78
2022/03/19 06:43:56;;;;;;;12.25;2.05;;;;;;;;;;5059061;28;20033;-78
2022/03/19 06:46:24;;;;;;;11.68;2.40;;;;;;;;;;5055635;28;20535;-78
2022/03/19 06:48:52;;;;;;;13.57;2.63;;;;;;;;;;5042220;28;20063;-78
2022/03/19 06:51:24;;;;;;;12.93;2.90;;;;;;;;;;5024518;28;20037;-78
2022/03/19 06:53:52;;;;;;;14.27;2.67;;;;;;;;;;5059976;28;20428;-78
2022/03/19 06:56:20;;;;;;;19.23;2.65;;;;;;;;;;5024037;28;21318;-78
2022/03/19 06:58:50;;;;;;;8.85;2.47;;;;;;;;;;5044994;28;20144;-78
2022/03/19 07:01:18;;;;;;;14.98;2.80;;;;;;;;;;5025001;28;20037;-78
2022/03/19 07:03:47;;;;;;;8.05;2.92;;;;;;;;;;5047508;28;20043;-78
2022/03/19 07:06:15;;;;;;;6.53;2.35;;;;;;;;;;5060825;28;20550;-78
2022/03/19 07:09:06;;;;;;;13.82;3.03;;;;;;;;;;5057122;28;20040;-78
2022/03/19 07:11:37;;;;;;;9.32;2.35;;;;;;;;;;5062268;28;20049;-78
2022/03/19 07:14:06;;;;;;;10.10;2.55;;;;;;;;;;5065935;28;20035;-79
2022/03/19 07:16:34;;;;;;;5.75;2.10;;;;;;;;;;5058888;28;20072;-79
2022/03/19 07:19:02;;;;;;;8.82;2.60;;;;;;;;;;5033812;28;20611;-79
2022/03/19 07:21:30;;;;;;;5.40;1.63;;;;;;;;;;5047582;28;20051;-79
2022/03/19 07:23:58;;;;;;;10.32;2.40;;;;;;;;;;5043945;28;20108;-79
2022/03/19 07:26:26;;;;;;;6.15;2.03;;;;;;;;;;5045764;28;20117;-80
2022/03/19 07:28:54;;;;;;;10.98;2.20;;;;;;;;;;5050261;28;20145;-80
2022/03/19 07:31:22;;;;;;;9.85;2.70;;;;;;;;;;5057187;28;20102;-79
2022/03/19 07:33:50;;;;;;;10.68;2.10;;;;;;;;;;5046837;28;20048;-80
2022/03/19 07:36:19;;;;;;;13.20;2.63;;;;;;;;;;5058873;28;20609;-79
2022/03/19 07:38:46;;;;;;;10.75;1.98;;;;;;;;;;5048024;28;20094;-79
2022/03/19 07:44:00;;;;;;;10.23;2.22;;;;;;;;;;5056395;28;20033;-79
2022/03/19 07:46:28;;;;;;;5.22;1.90;;;;;;;;;;5043024;28;20556;-79
2022/03/19 07:48:56;;;;;;;7.07;2.05;;;;;;;;;;5058637;28;20036;-79
2022/03/19 07:51:24;;;;;;;9.63;2.22;;;;;;;;;;5055497;28;20076;-79
2022/03/19 07:53:52;;;;;;;9.70;2.03;;;;;;;;;;5044627;28;20041;-79
2022/03/19 07:56:20;;;;;;;5.35;1.75;;;;;;;;;;5032981;28;20504;-80
2022/03/19 07:58:52;;;;;;;6.95;2.17;;;;;;;;;;5030635;28;20036;-80
2022/03/19 08:01:20;;;;;;;12.30;2.15;;;;;;;;;;5049231;28;20044;-80
2022/03/19 08:03:48;;;;;;;7.40;2.03;;;;;;;;;;5044849;28;20094;-80
2022/03/19 08:06:16;;;;;;;6.20;1.98;;;;;;;;;;5045208;28;20093;-80
2022/03/19 08:08:44;;;;;;;6.35;1.77;;;;;;;;;;5056949;28;20068;-80
2022/03/19 08:11:14;;;;;;;16.88;2.38;;;;;;;;;;5058887;28;20050;-80
2022/03/19 08:13:42;;;;;;;8.80;1.77;;;;;;;;;;5059134;28;20178;-80
2022/03/19 08:16:10;;;;;;;6.72;1.83;;;;;;;;;;5061462;28;20033;-81
2022/03/19 08:18:38;;;;;;;8.07;1.52;;;;;;;;;;5060065;28;20036;-80
2022/03/19 08:21:06;;;;;;;10.10;1.48;;;;;;;;;;5041496;28;20044;-80
2022/03/19 08:23:35;;;;;;;7.53;1.77;;;;;;;;;;5061045;28;20505;-80
2022/03/19 08:26:02;;;;;;;8.55;2.47;;;;;;;;;;5040072;28;20654;-80
2022/03/19 08:28:30;;;;;;;13.60;2.63;;;;;;;;;;5058588;28;20139;-80
2022/03/19 08:30:58;;;;;;;9.30;1.90;;;;;;;;;;5056946;28;20094;-80
2022/03/19 08:33:26;;;;;;;10.02;2.15;;;;;;;;;;5055209;28;20098;-80
2022/03/19 08:35:54;;;;;;;10.52;1.90;;;;;;;;;;5061194;28;20040;-80
2022/03/19 08:41:08;;;;;;;5.82;1.70;;;;;;;;;;5062451;28;20033;-79
2022/03/19 08:43:44;;;;;;;5.38;1.70;;;;;;;;;;5043558;28;20428;-80
2022/03/19 08:46:12;;;;;;;7.70;2.10;;;;;;;;;;5058434;28;20123;-79
2022/03/19 08:48:40;;;;;;;5.88;1.98;;;;;;;;;;5047379;28;20059;-79
2022/03/19 08:53:54;;;;;;;9.98;1.98;;;;;;;;;;5055337;28;20400;-79
2022/03/19 08:56:25;;;;;;;9.98;1.80;;;;;;;;;;5041072;28;20067;-79
2022/03/19 08:58:56;;;;;;;10.10;1.63;;;;;;;;;;5045060;28;20040;-79
2022/03/19 09:01:24;;;;;;;6.60;1.60;;;;;;;;;;5057457;28;20041;-80
2022/03/19 09:03:52;;;;;;;11.48;2.53;;;;;;;;;;5042973;28;20044;-80
2022/03/19 09:06:20;;;;;;;10.82;1.42;;;;;;;;;;5050322;28;20040;-80
2022/03/19 09:08:51;;;;;;;9.13;2.13;;;;;;;;;;5063646;28;20132;-80
2022/03/19 09:11:19;;;;;;;10.70;1.75;;;;;;;;;;5051977;28;20120;-81
2022/03/19 09:13:49;;;;;;;9.30;1.70;;;;;;;;;;5036242;28;20055;-76
2022/03/19 09:16:17;;;;;;;6.15;1.98;;;;;;;;;;5041009;28;20139;-75
2022/03/19 09:18:44;;;;;;;6.45;1.55;;;;;;;;;;5045742;28;20044;-76
2022/03/19 09:21:12;;;;;;;9.10;1.77;;;;;;;;;;5059344;28;20429;-76
2022/03/19 09:23:41;;;;;;;5.20;1.88;;;;;;;;;;5033190;28;20064;-76
2022/03/19 09:26:08;;;;;;;7.05;1.75;;;;;;;;;;5064624;28;20056;-76
2022/03/19 09:28:37;;;;;;;4.13;1.63;;;;;;;;;;5058300;28;20041;-78
2022/03/19 09:31:04;;;;;;;6.53;2.30;;;;;;;;;;5060149;28;20066;-78
2022/03/19 09:33:32;;;;;;;6.70;1.42;;;;;;;;;;5057568;28;20048;-79
2022/03/19 09:36:01;;;;;;;3.40;1.27;;;;;;;;;;5037005;28;20033;-78
2022/03/19 09:38:34;;;;;;;6.97;1.58;;;;;;;;;;5032516;28;20837;-78
2022/03/19 09:41:02;;;;;;;5.28;1.20;;;;;;;;;;5032905;28;20080;-78
2022/03/19 09:43:29;;;;;;;7.13;1.55;;;;;;;;;;5018474;28;20128;-78
2022/03/19 09:45:57;;;;;;;4.07;1.10;;;;;;;;;;5015113;28;20458;-77
2022/03/19 09:48:25;;;;;;;4.55;1.42;;;;;;;;;;5032449;28;20041;-78
2022/03/19 09:50:55;;;;;;;3.58;1.35;;;;;;;;;;5042824;28;20231;-79
2022/03/19 09:53:25;;;;;;;4.40;1.40;;;;;;;;;;5026905;28;20033;-79
2022/03/19 09:56:14;;;;;;;6.88;1.88;;;;;;;;;;5033051;28;20561;-79
2022/03/19 09:58:41;;;;;;;6.57;1.50;;;;;;;;;;5031448;28;20059;-80
2022/03/19 10:01:18;;;;;;;5.25;1.48;;;;;;;;;;5040162;28;20037;-79
2022/03/19 10:03:48;;;;;;;5.60;1.40;;;;;;;;;;5048758;28;20045;-79
2022/03/19 10:09:03;;;;;;;6.57;1.33;;;;;;;;;;5050127;28;20983;-79
2022/03/19 10:11:35;;;;;;;4.90;1.70;;;;;;;;;;5046537;28;20136;-79
2022/03/19 10:14:06;;;;;;;4.65;1.20;;;;;;;;;;5057934;28;20043;-79
2022/03/19 10:16:35;;;;;;;4.80;1.60;;;;;;;;;;5028382;28;20363;-79
2022/03/19 10:19:06;;;;;;;6.88;1.40;;;;;;;;;;5044836;28;20067;-77
2022/03/19 10:21:38;;;;;;;9.38;1.40;;;;;;;;;;5057918;28;20099;-77
2022/03/19 10:24:24;;;;;;;3.60;1.13;;;;;;;;;;5053255;28;20036;-77
2022/03/19 10:26:53;;;;;;;4.63;1.30;;;;;;;;;;5025685;28;20119;-78
2022/03/19 10:29:33;;;;;;;6.38;1.48;;;;;;;;;;5045765;28;20055;-77
2022/03/19 10:32:03;;;;;;;8.88;1.70;;;;;;;;;;5040620;28;20147;-78
2022/03/19 10:34:31;;;;;;;2.13;0.70;;;;;;;;;;5041429;28;20037;-78
2022/03/19 10:36:58;;;;;;;7.38;1.38;;;;;;;;;;5025710;28;20454;-78
2022/03/19 10:39:28;;;;;;;4.90;1.10;;;;;;;;;;5046695;28;20097;-78
2022/03/19 10:41:56;;;;;;;4.68;1.42;;;;;;;;;;5058795;28;20040;-78
2022/03/19 10:44:27;;;;;;;4.13;1.13;;;;;;;;;;5037811;28;20052;-77
2022/03/19 10:47:00;;;;;;;4.32;1.20;;;;;;;;;;5058875;28;20047;-78
2022/03/19 10:49:31;;;;;;;3.30;1.10;;;;;;;;;;5048889;28;20044;-77
2022/03/19 10:52:04;;;;;;;4.45;1.40;;;;;;;;;;5038279;28;20044;-77
2022/03/19 10:54:34;;;;;;;4.88;1.65;;;;;;;;;;5059421;28;20051;-77
2022/03/19 10:57:04;;;;;;;8.05;1.33;;;;;;;;;;5055641;28;20048;-77
2022/03/19 10:59:33;;;;;;;5.68;1.17;;;;;;;;;;5059206;28;20398;-77
2022/03/19 11:02:04;;;;;;;7.78;1.60;;;;;;;;;;5040105;28;20063;-78
2022/03/19 11:04:35;;;;;;;5.10;1.42;;;;;;;;;;5055182;28;20144;-77
2022/03/19 11:07:05;;;;;;;2.13;1.00;;;;;;;;;;5042712;28;20048;-77
2022/03/19 11:09:34;;;;;;;4.57;1.40;;;;;;;;;;5028655;28;20054;-78
2022/03/19 11:12:07;;;;;;;5.47;1.38;;;;;;;;;;5041354;28;20110;-78
2022/03/19 11:14:40;;;;;;;6.38;1.40;;;;;;;;;;5059876;28;20032;-78
2022/03/19 11:17:30;;;;;;;3.63;1.35;;;;;;;;;;5028110;28;20061;-77
2022/03/19 11:20:05;;;;;;;11.10;2.95;;;;;;;;;;5031891;28;20152;-78
2022/03/19 11:22:39;;;;;;;5.15;1.33;;;;;;;;;;5053160;28;20049;-78
2022/03/19 11:25:27;;;;;;;5.28;1.38;;;;;;;;;;5047410;28;20041;-78
2022/03/19 11:28:06;;;;;;;5.88;1.30;;;;;;;;;;5044890;28;20543;-78
2022/03/19 11:30:41;;;;;;;2.95;1.20;;;;;;;;;;5055691;28;20040;-78
2022/03/19 11:33:15;;;;;;;4.43;2.08;;;;;;;;;;5059469;28;20044;-78
2022/03/19 11:36:01;;;;;;;6.32;2.05;;;;;;;;;;5038507;28;20103;-78
2022/03/19 11:38:31;;;;;;;6.35;1.48;;;;;;;;;;5057618;28;20119;-78
2022/03/19 11:41:00;;;;;;;3.85;1.40;;;;;;;;;;5039897;28;20036;-78
2022/03/19 11:43:29;;;;;;;4.88;1.58;;;;;;;;;;5059457;28;20040;-78
2022/03/19 11:46:09;;;;;;;4.70;1.40;;;;;;;;;;5055750;28;20048;-78
2022/03/19 11:48:48;;;;;;;2.85;1.35;;;;;;;;;;5059006;28;20047;-79
2022/03/19 11:51:31;;;;;;;4.80;1.40;;;;;;;;;;5057457;28;20068;-79
2022/03/19 11:54:12;;;;;;;4.45;1.42;;;;;;;;;;5033599;28;20110;-79
2022/03/19 11:56:43;;;;;;;2.42;1.00;;;;;;;;;;5039591;28;20041;-79
2022/03/19 11:59:35;;;;;;;3.90;1.13;;;;;;;;;;5045674;28;20044;-79
2022/03/19 12:02:02;;;;;;;4.65;1.42;;;;;;;;;;5049862;28;20566;-79
2022/03/19 12:04:53;;;;;;;5.85;1.30;;;;;;;;;;5051764;28;20041;-79
2022/03/19 12:07:42;;;;;;;5.30;1.73;;;;;;;;;;5036545;28;20419;-79
2022/03/19 12:10:21;;;;;;;2.72;1.63;;;;;;;;;;5055031;28;20047;-80
2022/03/19 12:12:48;;;;;;;5.72;1.45;;;;;;;;;;5060118;28;20040;-79
2022/03/19 12:15:31;;;;;;;3.78;1.23;;;;;;;;;;5050509;28;20041;-79
2022/03/19 12:18:39;;;;;;;9.45;1.67;;;;;;;;;;5059798;28;20043;-79
2022/03/19 12:21:11;;;;;;;3.05;1.30;;;;;;;;;;5058954;28;20033;-79
2022/03/19 12:24:06;;;;;;;5.38;2.40;;;;;;;;;;5057640;28;20044;-79
2022/03/19 12:26:53;;;;;;;4.85;1.58;;;;;;;;;;5015331;28;20052;-79
2022/03/19 12:29:20;;;;;;;5.65;2.35;;;;;;;;;;5044716;28;20045;-79
2022/03/19 12:31:52;;;;;;;6.50;1.83;;;;;;;;;;5074331;28;20087;-79
2022/03/19 12:34:22;;;;;;;7.55;1.60;;;;;;;;;;5072127;28;20035;-79
2022/03/19 12:36:59;;;;;;;5.00;1.85;;;;;;;;;;5060583;28;20141;-79
2022/03/19 12:39:26;;;;;;;4.38;1.40;;;;;;;;;;5045139;28;20068;-79
2022/03/19 12:41:54;;;;;;;3.70;1.52;;;;;;;;;;5049785;28;20424;-79
2022/03/19 12:44:36;;;;;;;3.13;1.60;;;;;;;;;;5061917;28;20497;-79
2022/03/19 12:47:06;;;;;;;3.67;1.45;;;;;;;;;;5058320;28;20132;-79
2022/03/19 12:49:35;;;;;;;6.13;1.90;;;;;;;;;;5060013;28;20040;-79
2022/03/19 12:52:11;;;;;;;5.75;1.40;;;;;;;;;;5046000;28;20048;-79
2022/03/19 12:54:46;;;;;;;4.38;2.10;;;;;;;;;;5028688;28;20082;-78
2022/03/19 12:57:23;;;;;;;6.38;1.63;;;;;;;;;;5059327;28;20036;-78
2022/03/19 12:59:58;;;;;;;4.70;1.48;;;;;;;;;;5046688;28;20036;-78
2022/03/19 13:02:27;;;;;;;7.00;2.00;;;;;;;;;;5041698;28;20131;-78
2022/03/19 13:04:54;;;;;;;4.85;1.70;;;;;;;;;;5032413;28;20108;-78
2022/03/19 13:07:23;;;;;;;5.45;1.70;;;;;;;;;;5055511;28;20041;-78
2022/03/19 13:09:50;;;;;;;4.43;1.77;;;;;;;;;;5056979;28;21131;-78
2022/03/19 13:12:21;;;;;;;6.82;2.22;;;;;;;;;;5041015;28;20043;-78
2022/03/19 13:14:55;;;;;;;6.43;2.63;;;;;;;;;;5046548;28;20044;-78
2022/03/19 13:17:24;;;;;;;3.95;1.70;;;;;;;;;;5055882;28;20475;-79
2022/03/19 13:19:52;;;;;;;7.55;2.92;;;;;;;;;;5044759;28;20048;-78
2022/03/19 13:22:23;;;;;;;5.38;2.15;;;;;;;;;;5040044;28;20045;-80
2022/03/19 13:24:55;;;;;;;8.23;2.20;;;;;;;;;;5057369;28;20802;-79
2022/03/19 13:27:28;;;;;;;6.53;2.40;;;;;;;;;;5036851;28;20051;-79
2022/03/19 13:30:02;;;;;;;6.70;2.58;;;;;;;;;;5055309;28;20051;-79
2022/03/19 13:32:31;;;;;;;7.28;2.20;;;;;;;;;;5036154;28;20711;-80
2022/03/19 13:35:00;;;;;;;4.30;2.45;;;;;;;;;;5027434;28;20454;-77
2022/03/19 13:37:37;;;;;;;5.82;1.58;;;;;;;;;;5034600;28;20065;-79
2022/03/19 13:40:06;;;;;;;9.23;2.17;;;;;;;;;;5057178;28;20048;-79
2022/03/19 13:42:38;;;;;;;4.68;2.22;;;;;;;;;;5059851;28;20076;-79
2022/03/19 13:45:10;;;;;;;7.93;2.30;;;;;;;;;;5040866;28;20079;-79
2022/03/19 13:47:50;;;;;;;3.72;1.95;;;;;;;;;;5060990;28;20765;-79
2022/03/19 13:50:19;;;;;;;4.57;2.20;;;;;;;;;;5059634;28;20032;-79
2022/03/19 13:52:54;;;;;;;7.03;2.50;;;;;;;;;;5059464;28;20092;-79
2022/03/19 13:55:21;;;;;;;7.28;2.72;;;;;;;;;;5045512;28;20033;-78
2022/03/19 13:58:01;;;;;;;6.78;3.13;;;;;;;;;;5060030;28;20121;-78
2022/03/19 14:00:31;;;;;;;5.93;2.50;;;;;;;;;;5057959;28;20091;-78
2022/03/19 14:03:12;;;;;;;7.15;2.75;;;;;;;;;;5048544;28;20044;-79
2022/03/19 14:05:48;;;;;;;7.22;2.83;;;;;;;;;;5048682;28;20032;-79
2022/03/19 14:08:19;;;;;;;9.40;2.70;;;;;;;;;;5026804;28;20090;-78
2022/03/19 14:10:49;;;;;;;6.75;3.33;;;;;;;;;;5059542;28;20045;-79
2022/03/19 14:13:20;;;;;;;6.63;3.03;;;;;;;;;;5056235;28;20052;-80
2022/03/19 14:15:52;;;;;;;8.57;3.53;;;;;;;;;;5043806;28;20050;-79
2022/03/19 14:18:22;;;;;;;7.78;2.95;;;;;;;;;;5060739;28;20082;-79
2022/03/19 14:20:52;;;;;;;5.50;2.72;;;;;;;;;;5055057;28;20055;-79
2022/03/19 14:23:20;;;;;;;5.72;3.00;;;;;;;;;;5037806;28;20058;-79
2022/03/19 14:25:49;;;;;;;8.07;2.88;;;;;;;;;;5039562;28;20045;-79
2022/03/19 14:28:19;;;;;;;6.70;2.95;;;;;;;;;;5056510;28;20423;-79
2022/03/19 14:30:52;;;;;;;9.07;2.97;;;;;;;;;;5060471;28;20075;-79
2022/03/19 14:33:23;;;;;;;5.03;2.70;;;;;;;;;;5046898;28;20049;-79
2022/03/19 14:35:56;;;;;;;5.35;3.10;;;;;;;;;;5045367;28;20037;-78
2022/03/19 14:38:38;;;;;;;5.95;2.80;;;;;;;;;;5058293;28;20809;-79
2022/03/19 14:41:14;;;;;;;6.80;3.38;;;;;;;;;;5050340;28;20414;-79
2022/03/19 14:43:46;;;;;;;7.63;3.10;;;;;;;;;;5041001;28;21128;-79
2022/03/19 14:46:14;;;;;;;7.07;2.72;;;;;;;;;;5040514;28;20044;-79
2022/03/19 14:48:43;;;;;;;6.00;3.42;;;;;;;;;;5059311;28;22204;-79
2022/03/19 14:51:13;;;;;;;9.43;3.28;;;;;;;;;;5041181;28;20430;-78
2022/03/19 14:53:42;;;;;;;5.88;3.47;;;;;;;;;;5059272;28;20036;-79
2022/03/19 14:56:15;;;;;;;6.13;3.38;;;;;;;;;;5061213;28;20221;-78
2022/03/19 14:58:44;;;;;;;6.53;2.50;;;;;;;;;;5057629;28;20901;-78
2022/03/19 15:01:13;;;;;;;9.77;2.88;;;;;;;;;;5041310;28;20087;-78
2022/03/19 15:03:42;;;;;;;4.22;2.38;;;;;;;;;;5028128;28;20470;-79
2022/03/19 15:06:12;;;;;;;6.15;3.03;;;;;;;;;;5026278;28;20147;-78
2022/03/19 15:08:39;;;;;;;6.60;3.10;;;;;;;;;;5036796;28;20048;-79
2022/03/19 15:11:07;;;;;;;6.00;2.88;;;;;;;;;;5023467;28;20041;-79
2022/03/19 15:13:39;;;;;;;7.00;3.15;;;;;;;;;;5058734;28;20042;-79
2022/03/19 15:16:07;;;;;;;6.22;3.05;;;;;;;;;;5058296;28;20036;-79
2022/03/19 15:18:35;;;;;;;5.20;3.03;;;;;;;;;;5050998;28;20041;-79
2022/03/19 15:21:03;;;;;;;6.40;2.97;;;;;;;;;;5039812;28;20151;-79